Terminal Aerodrome Forecast
Issued by NWS Tuscon, AZ

Home | Current Version | Previous Version | Text Only | Print | Product List | Glossary On
Versions: 1 2 3 4 5 6 7 8 9 10 11 12 13 14 15 16 17 18 19 20 21 22 23 24 25 26
543
FTUS45 KTWC 281739
TAFTUS
TAF
KTUS 281739Z 2818/2918 VRB05KT P6SM SCT090 SCT300
     FM282100 34007KT P6SM SCT100 SCT300
     FM290100 02009KT P6SM FEW080 BKN120 BKN300
     FM290700 15005KT P6SM SCT300
     FM291700 VRB05KT P6SM FEW080 SCT300=

USA.gov is the U.S. government's official web portal to all federal, state and local government web resources and services.